createdAt,value
2018-11-21T00:02:00.898Z,6.71
2018-11-21T00:04:34.727Z,6.64
2018-11-21T00:07:08.587Z,6.65
2018-11-21T00:09:42.454Z,6.56
2018-11-21T00:12:17.802Z,6.64
2018-11-21T00:14:52.411Z,6.65
2018-11-21T00:17:26.237Z,6.57
2018-11-21T00:20:00.172Z,6.50
2018-11-21T00:22:33.998Z,6.47
2018-11-21T00:25:07.936Z,6.50
2018-11-21T00:27:41.793Z,6.49
2018-11-21T00:30:16.776Z,6.42
2018-11-21T00:32:50.640Z,6.50
2018-11-21T00:35:24.482Z,6.54
2018-11-21T00:37:58.592Z,6.49
2018-11-21T00:40:32.430Z,6.54
2018-11-21T00:43:06.436Z,6.49
2018-11-21T00:45:40.323Z,6.48
2018-11-21T00:48:14.159Z,6.40
2018-11-21T00:50:48.042Z,6.40
2018-11-21T00:53:21.928Z,6.41
2018-11-21T00:55:55.754Z,6.39
2018-11-21T00:58:29.574Z,6.37
2018-11-21T01:01:03.406Z,6.35
2018-11-21T01:03:37.961Z,6.39
2018-11-21T01:06:11.790Z,6.38
2018-11-21T01:08:46.228Z,6.37
2018-11-21T01:11:20.048Z,6.40
2018-11-21T01:13:54.197Z,6.40
2018-11-21T01:16:28.037Z,6.38
2018-11-21T01:19:02.518Z,6.39
2018-11-21T01:21:37.286Z,6.45
2018-11-21T01:24:11.625Z,6.51
2018-11-21T01:26:45.431Z,6.53
2018-11-21T01:29:19.268Z,6.53
2018-11-21T01:31:53.137Z,6.57
2018-11-21T01:34:27.032Z,6.54
2018-11-21T01:37:01.465Z,6.55
2018-11-21T01:42:16.813Z,6.53
2018-11-21T01:44:51.428Z,6.56
2018-11-21T01:50:09.448Z,6.63
2018-11-21T01:55:27.461Z,6.75
2018-11-21T01:58:02.048Z,6.75
2018-11-21T02:00:35.894Z,6.77
2018-11-21T02:03:10.495Z,6.77
2018-11-21T02:10:09.103Z,6.52
2018-11-21T02:15:24.367Z,6.85
2018-11-21T02:17:58.174Z,6.89
2018-11-21T02:20:31.913Z,6.91
2018-11-21T02:23:06.462Z,6.87
2018-11-21T02:25:40.320Z,6.82
2018-11-21T02:28:14.122Z,6.78
2018-11-21T02:30:47.908Z,6.76
2018-11-21T02:33:21.970Z,6.81
2018-11-21T02:35:56.557Z,6.91
2018-11-21T02:38:30.431Z,6.95
2018-11-21T02:41:04.270Z,6.98
2018-11-21T02:43:38.838Z,6.94
2018-11-21T02:46:13.715Z,6.95
2018-11-21T02:48:47.547Z,6.85
2018-11-21T02:51:21.343Z,6.79
2018-11-21T02:53:55.162Z,6.72
2018-11-21T03:00:23.359Z,6.40
2018-11-21T03:02:57.157Z,6.48
2018-11-21T03:08:12.488Z,6.74
2018-11-21T03:10:46.258Z,6.81
2018-11-21T03:13:26.902Z,6.81
2018-11-21T03:15:54.213Z,6.78
2018-11-21T03:18:28.771Z,6.80
2018-11-21T03:21:02.607Z,6.80
2018-11-21T03:23:36.919Z,6.77
2018-11-21T03:26:10.811Z,6.65
2018-11-21T03:31:26.979Z,6.62
2018-11-21T03:34:00.774Z,6.58
2018-11-21T03:36:35.382Z,6.55
2018-11-21T03:39:11.278Z,6.59
2018-11-21T03:41:46.365Z,6.60
2018-11-21T03:44:20.204Z,6.61
2018-11-21T03:46:53.977Z,6.61
2018-11-21T03:49:27.866Z,6.68
2018-11-21T03:52:01.645Z,6.73
2018-11-21T03:54:36.217Z,6.78
2018-11-21T03:57:10.094Z,6.81
2018-11-21T04:05:05.881Z,6.70
2018-11-21T04:10:19.531Z,6.64
2018-11-21T04:15:34.862Z,6.55
2018-11-21T04:18:08.638Z,6.56
2018-11-21T04:20:42.527Z,6.57
2018-11-21T04:25:57.909Z,6.54
2018-11-21T04:28:31.836Z,6.54
2018-11-21T04:31:05.641Z,6.46
2018-11-21T04:33:39.893Z,6.44
2018-11-21T04:39:00.334Z,6.53
2018-11-21T04:41:34.878Z,6.47
2018-11-21T04:46:50.202Z,6.55
2018-11-21T04:49:24.022Z,6.58
2018-11-21T04:51:57.822Z,6.51
2018-11-21T04:54:31.619Z,6.48
2018-11-21T04:59:48.319Z,6.39
2018-11-21T05:02:22.131Z,6.39
2018-11-21T05:04:55.942Z,6.43
2018-11-21T05:07:29.755Z,6.40
2018-11-21T05:10:03.769Z,6.43
2018-11-21T05:12:38.035Z,6.40
2018-11-21T05:15:11.839Z,6.38
2018-11-21T05:17:45.676Z,6.32
2018-11-21T05:20:19.472Z,6.19
2018-11-21T05:22:53.312Z,6.19
2018-11-21T05:25:27.096Z,6.15
2018-11-21T05:28:00.909Z,6.19
2018-11-21T05:30:34.784Z,6.24
2018-11-21T05:33:09.339Z,6.26
2018-11-21T05:35:43.185Z,6.29
2018-11-21T05:38:17.013Z,6.36
2018-11-21T05:40:50.990Z,6.42
2018-11-21T05:43:24.875Z,6.35
2018-11-21T05:45:59.128Z,6.33
2018-11-21T05:48:32.956Z,6.33
2018-11-21T05:51:07.053Z,6.36
2018-11-21T05:53:41.655Z,6.39
2018-11-21T05:56:15.521Z,6.37
2018-11-21T05:58:50.861Z,6.35
2018-11-21T06:01:25.475Z,6.36
2018-11-21T06:04:00.057Z,6.37
2018-11-21T06:06:33.881Z,6.30
2018-11-21T06:09:12.947Z,6.25
2018-11-21T06:11:47.997Z,6.24
2018-11-21T06:14:21.821Z,6.30
2018-11-21T06:16:56.021Z,6.25
2018-11-21T06:19:29.905Z,6.26
2018-11-21T06:22:05.349Z,6.27
2018-11-21T06:24:39.921Z,6.21
2018-11-21T06:27:13.793Z,6.26
2018-11-21T06:29:48.358Z,6.28
2018-11-21T06:32:23.217Z,6.28
2018-11-21T06:34:57.069Z,6.25
2018-11-21T06:37:30.858Z,6.23
2018-11-21T06:40:04.704Z,6.24
2018-11-21T06:42:38.641Z,6.22
2018-11-21T06:45:12.438Z,6.23
2018-11-21T06:47:46.262Z,6.18
2018-11-21T06:50:20.077Z,6.13
2018-11-21T06:52:55.017Z,6.12
2018-11-21T06:55:28.931Z,6.08
2018-11-21T06:58:03.482Z,5.98
2018-11-21T07:00:37.299Z,5.97
2018-11-21T07:03:11.172Z,5.97
2018-11-21T07:11:08.842Z,5.91
2018-11-21T07:16:24.429Z,5.89
2018-11-21T07:18:58.501Z,5.96
2018-11-21T07:21:32.256Z,6.01
2018-11-21T07:24:06.101Z,6.15
2018-11-21T07:26:40.644Z,6.20
2018-11-21T07:29:14.496Z,6.24
2018-11-21T07:34:30.511Z,6.46
2018-11-21T07:37:04.901Z,6.53
2018-11-21T07:39:38.738Z,6.59
2018-11-21T07:42:12.514Z,6.71
2018-11-21T07:44:46.298Z,6.98
2018-11-21T07:47:26.475Z,7.23
2018-11-21T07:49:54.076Z,7.53
2018-11-21T07:52:27.906Z,7.95
2018-11-21T07:55:01.807Z,8.43
2018-11-21T07:57:39.860Z,8.87
2018-11-21T08:06:57.589Z,10.55
2018-11-21T08:10:00.199Z,11.03
2018-11-21T08:15:54.116Z,12.44
2018-11-21T08:18:47.968Z,12.97
2018-11-21T08:27:58.371Z,15.21
2018-11-21T08:30:32.181Z,15.74
2018-11-21T08:35:48.288Z,16.47
2018-11-21T08:38:22.134Z,16.63
2018-11-21T08:40:56.060Z,16.58
2018-11-21T08:46:13.073Z,17.59
2018-11-21T08:48:46.929Z,18.20
2018-11-21T08:51:21.497Z,18.70
2018-11-21T08:56:36.957Z,18.98
2018-11-21T08:59:10.847Z,19.05
2018-11-21T09:01:44.703Z,18.90
2018-11-21T09:07:00.231Z,18.67
2018-11-21T09:09:33.932Z,19.22
2018-11-21T09:14:49.309Z,20.17
2018-11-21T09:17:23.139Z,20.16
2018-11-21T09:27:58.461Z,18.56
2018-11-21T09:30:33.349Z,18.99
2018-11-21T09:35:50.076Z,20.20
2018-11-21T09:38:23.939Z,20.62
2018-11-21T09:40:57.744Z,21.09
2018-11-21T09:46:21.583Z,20.58
2018-11-21T09:48:55.400Z,20.80
2018-11-21T09:51:29.500Z,21.51
2018-11-21T10:08:41.911Z,23.21
2018-11-21T10:11:16.927Z,22.06
2018-11-21T10:16:32.676Z,21.22
2018-11-21T10:19:07.163Z,20.91
2018-11-21T10:21:40.997Z,20.60
2018-11-21T10:24:14.814Z,19.58
2018-11-21T10:29:30.121Z,18.92
2018-11-21T10:34:56.355Z,17.92
2018-11-21T10:37:31.648Z,17.88
2018-11-21T10:40:05.440Z,17.39
2018-11-21T10:45:20.838Z,16.42
2018-11-21T10:47:54.766Z,16.63
2018-11-21T10:50:28.608Z,16.83
2018-11-21T10:55:44.013Z,16.79
2018-11-21T10:58:18.565Z,17.31
2018-11-21T11:01:10.933Z,18.31
2018-11-21T11:07:04.116Z,18.10
2018-11-21T11:10:00.469Z,17.52
2018-11-21T11:15:44.698Z,16.45
2018-11-21T11:18:37.205Z,15.91
2018-11-21T11:21:29.837Z,15.38
2018-11-21T11:27:18.185Z,14.88
2018-11-21T11:30:03.046Z,14.48
2018-11-21T11:35:49.798Z,14.43
2018-11-21T11:41:45.086Z,14.16
2018-11-21T11:47:41.458Z,13.99
2018-11-21T11:50:27.343Z,14.38
2018-11-21T11:56:09.997Z,15.74
2018-11-21T11:59:03.133Z,15.41
2018-11-21T12:01:55.523Z,15.46
2018-11-21T12:07:58.182Z,15.26
2018-11-21T12:10:50.938Z,15.32
2018-11-21T12:16:48.041Z,15.10
2018-11-21T12:26:10.536Z,18.85
2018-11-21T12:29:02.429Z,19.71
2018-11-21T12:34:58.961Z,20.83
2018-11-21T12:38:04.783Z,20.98
2018-11-21T12:41:01.254Z,21.27
2018-11-21T12:47:07.505Z,21.90
2018-11-21T12:50:04.463Z,22.27
2018-11-21T13:08:19.642Z,22.72
2018-11-21T13:11:03.475Z,22.46
2018-11-21T13:17:19.541Z,22.52
2018-11-21T13:20:11.845Z,22.52
2018-11-21T13:25:59.766Z,21.87
2018-11-21T13:28:42.667Z,21.42
2018-11-21T13:31:23.963Z,21.00
2018-11-21T13:37:01.994Z,21.67
2018-11-21T13:39:43.070Z,21.65
2018-11-21T13:48:55.642Z,20.90
2018-11-21T13:51:35.779Z,20.23
2018-11-21T13:57:13.706Z,19.24
2018-11-21T13:59:47.528Z,18.66
2018-11-21T14:05:13.922Z,17.73
2018-11-21T14:07:48.073Z,17.13
2018-11-21T14:10:21.871Z,16.70
2018-11-21T14:12:55.639Z,16.20
2018-11-21T14:15:30.247Z,15.85
2018-11-21T14:18:04.022Z,15.90
2018-11-21T14:20:37.870Z,15.65
2018-11-21T14:23:12.770Z,15.27
2018-11-21T14:28:26.756Z,14.61
2018-11-21T14:36:19.795Z,13.96
2018-11-21T14:38:53.602Z,13.61
2018-11-21T14:41:27.463Z,13.36
2018-11-21T14:46:44.669Z,12.85
2018-11-21T14:49:18.466Z,12.53
2018-11-21T14:51:52.297Z,12.25
2018-11-21T14:57:05.706Z,11.94
2018-11-21T14:59:39.656Z,11.79
2018-11-21T15:04:55.695Z,11.59
2018-11-21T15:18:13.312Z,10.59
2018-11-21T15:20:47.458Z,10.30
2018-11-21T15:26:07.529Z,10.09
2018-11-21T15:31:28.545Z,9.87
2018-11-21T15:34:03.228Z,9.83
2018-11-21T15:39:18.550Z,9.54
2018-11-21T15:41:52.428Z,9.21
2018-11-21T15:47:08.040Z,9.05
2018-11-21T15:49:41.887Z,8.92
2018-11-21T15:52:16.420Z,8.76
2018-11-21T15:57:40.533Z,9.13
2018-11-21T16:00:17.327Z,9.14
2018-11-21T16:05:34.260Z,9.31
2018-11-21T16:08:08.910Z,9.26
2018-11-21T16:10:44.532Z,9.28
2018-11-21T16:16:00.236Z,9.49
2018-11-21T16:18:34.001Z,9.52
2018-11-21T16:21:08.541Z,9.37
2018-11-21T16:23:42.637Z,9.25
2018-11-21T16:26:17.181Z,9.16
2018-11-21T16:28:51.028Z,9.04
2018-11-21T16:39:26.268Z,8.86
2018-11-21T16:42:00.098Z,8.76
2018-11-21T16:44:33.923Z,8.81
2018-11-21T16:47:08.141Z,8.75
2018-11-21T16:52:27.814Z,8.71
2018-11-21T16:55:01.663Z,8.86
2018-11-21T16:57:35.465Z,8.73
2018-11-21T17:03:04.281Z,8.58
2018-11-21T17:05:38.028Z,8.54
2018-11-21T17:08:11.823Z,8.61
2018-11-21T17:10:45.590Z,8.55
2018-11-21T17:13:19.383Z,8.47
2018-11-21T17:15:53.295Z,8.44
2018-11-21T17:18:27.121Z,8.47
2018-11-21T17:21:01.351Z,8.44
2018-11-21T17:23:35.973Z,8.32
2018-11-21T17:28:53.080Z,8.62
2018-11-21T17:31:27.223Z,8.54
2018-11-21T17:34:01.029Z,8.57
2018-11-21T17:36:36.417Z,8.55
2018-11-21T17:41:53.876Z,8.58
2018-11-21T17:44:28.434Z,8.63
2018-11-21T17:47:02.211Z,8.55
2018-11-21T17:49:35.946Z,8.52
2018-11-21T17:52:11.342Z,8.40
2018-11-21T17:54:45.268Z,8.24
2018-11-21T17:59:52.944Z,8.13
2018-11-21T18:02:27.643Z,8.20
2018-11-21T18:05:04.877Z,8.36
2018-11-21T18:07:35.302Z,8.28
2018-11-21T18:12:59.849Z,8.35
2018-11-21T18:15:34.802Z,8.52
2018-11-21T18:20:50.871Z,8.53
2018-11-21T18:23:24.665Z,8.57
2018-11-21T18:28:39.893Z,8.38
2018-11-21T18:31:13.681Z,8.36
2018-11-21T18:33:47.465Z,8.33
2018-11-21T18:36:21.262Z,8.35
2018-11-21T18:41:36.615Z,8.48
2018-11-21T18:44:10.509Z,8.65
2018-11-21T18:46:45.736Z,8.64
2018-11-21T18:49:19.492Z,8.58
2018-11-21T18:51:54.335Z,8.57
2018-11-21T18:54:28.530Z,8.30
2018-11-21T18:57:27.545Z,8.22
2018-11-21T19:03:05.565Z,8.24
2018-11-21T19:05:39.685Z,8.40
2018-11-21T19:08:13.482Z,8.44
2018-11-21T19:10:47.717Z,8.26
2018-11-21T19:13:22.354Z,8.29
2018-11-21T19:15:56.563Z,8.37
2018-11-21T19:21:12.132Z,8.43
2018-11-21T19:23:46.384Z,8.54
2018-11-21T19:29:00.404Z,8.58
2018-11-21T19:31:34.648Z,8.59
2018-11-21T19:36:51.591Z,8.87
2018-11-21T19:39:25.791Z,8.85
2018-11-21T19:44:41.699Z,8.74
2018-11-21T19:47:15.923Z,8.67
2018-11-21T19:49:50.448Z,8.74
2018-11-21T19:55:09.230Z,8.68
2018-11-21T19:57:44.385Z,8.81
2018-11-21T20:00:21.952Z,8.69
2018-11-21T20:02:56.281Z,8.63
2018-11-21T20:05:30.529Z,8.78
2018-11-21T20:08:04.711Z,8.98
2018-11-21T20:10:38.937Z,9.14
2018-11-21T20:13:13.351Z,9.09
2018-11-21T20:15:47.551Z,9.11
2018-11-21T20:18:21.768Z,9.19
2018-11-21T20:20:56.123Z,9.28
2018-11-21T20:26:16.080Z,9.35
2018-11-21T20:28:49.859Z,9.38
2018-11-21T20:34:05.439Z,9.40
2018-11-21T20:36:39.195Z,9.36
2018-11-21T20:39:13.949Z,9.35
2018-11-21T20:41:47.708Z,9.37
2018-11-21T20:44:21.526Z,9.40
2018-11-21T20:46:55.765Z,9.45
2018-11-21T20:49:29.580Z,9.29
2018-11-21T20:52:03.742Z,9.12
2018-11-21T20:57:19.999Z,9.25
2018-11-21T20:59:53.753Z,9.16
2018-11-21T21:05:15.465Z,9.28
2018-11-21T21:07:49.323Z,9.35
2018-11-21T21:10:28.708Z,9.39
2018-11-21T21:13:02.597Z,9.25
2018-11-21T21:15:36.421Z,9.28
2018-11-21T21:18:10.328Z,9.23
2018-11-21T21:23:25.854Z,9.08
2018-11-21T21:28:41.239Z,9.01
2018-11-21T21:31:15.061Z,9.20
2018-11-21T21:33:49.654Z,9.24
2018-11-21T21:36:23.464Z,9.26
2018-11-21T21:38:57.250Z,9.27
2018-11-21T21:44:17.051Z,9.07
2018-11-21T21:49:32.445Z,8.77
2018-11-21T21:52:06.336Z,8.77
2018-11-21T21:54:40.151Z,8.64
2018-11-21T21:57:14.000Z,8.64
2018-11-21T21:59:48.305Z,8.52
2018-11-21T22:02:22.328Z,8.14
2018-11-21T22:04:56.473Z,8.50
2018-11-21T22:07:30.555Z,8.60
2018-11-21T22:10:04.354Z,8.74
2018-11-21T22:12:38.217Z,8.90
2018-11-21T22:15:30.096Z,8.89
2018-11-21T22:18:08.995Z,8.94
2018-11-21T22:20:42.860Z,8.93
2018-11-21T22:23:16.684Z,8.86
2018-11-21T22:28:32.829Z,9.18
2018-11-21T22:31:06.790Z,9.14
2018-11-21T22:33:40.591Z,9.28
2018-11-21T22:36:15.319Z,9.31
2018-11-21T22:38:49.421Z,9.35
2018-11-21T22:41:23.254Z,9.36
2018-11-21T22:43:57.821Z,9.43
2018-11-21T22:46:31.655Z,9.37
2018-11-21T22:49:05.837Z,9.32
2018-11-21T22:51:40.100Z,9.38
2018-11-21T22:54:13.902Z,9.48
2018-11-21T22:56:48.091Z,9.46
2018-11-21T22:59:21.941Z,9.44
2018-11-21T23:01:56.131Z,9.51
2018-11-21T23:04:29.951Z,9.49
2018-11-21T23:07:04.043Z,9.54
2018-11-21T23:09:37.857Z,9.57
2018-11-21T23:12:11.735Z,9.57
2018-11-21T23:14:45.639Z,9.65
2018-11-21T23:17:19.466Z,9.67
2018-11-21T23:25:16.619Z,9.80
2018-11-21T23:27:50.461Z,9.82
2018-11-21T23:30:24.292Z,9.83
2018-11-21T23:35:39.542Z,9.92
2018-11-21T23:38:13.472Z,9.87
2018-11-21T23:40:47.607Z,9.92
2018-11-21T23:46:02.988Z,9.79
2018-11-21T23:48:36.839Z,9.73
2018-11-21T23:51:10.703Z,9.67
2018-11-21T23:56:26.094Z,9.72
2018-11-21T23:59:00.213Z,9.72
